Time;durP1;ratioP1;P1;durP2;ratioP2;P2;SDS_P1;SDS_P2;PMS_P1;PMS_P2;Temp;Humidity;BMP_temperature;BMP_pressure;BME280_temperature;BME280_humidity;BME280_pressure;Samples;Min_cycle;Max_cycle;Signal;HPM_P1;HPM_P2
2023/08/15 00:01:30;;;;;;;86.32;8.98;;;;;;;;;;5046126;28;20075;-53
2023/08/15 00:03:57;;;;;;;44.85;5.28;;;;;;;;;;5046407;28;20060;-54
2023/08/15 00:06:23;;;;;;;28.77;3.58;;;;;;;;;;5045876;28;20034;-59
2023/08/15 00:08:54;;;;;;;21.50;2.80;;;;;;;;;;5045839;28;20036;-52
2023/08/15 00:11:24;;;;;;;15.85;1.75;;;;;;;;;;5045730;28;20021;-55
2023/08/15 00:13:55;;;;;;;14.93;1.85;;;;;;;;;;5045792;28;20037;-55
2023/08/15 00:16:22;;;;;;;10.05;1.67;;;;;;;;;;5046198;28;20104;-55
2023/08/15 00:18:48;;;;;;;8.48;1.50;;;;;;;;;;5045685;28;20037;-58
2023/08/15 00:21:15;;;;;;;12.90;1.85;;;;;;;;;;5045492;28;20076;-57
2023/08/15 00:23:44;;;;;;;8.57;1.40;;;;;;;;;;5045252;28;20041;-55
2023/08/15 00:26:11;;;;;;;11.05;1.30;;;;;;;;;;5045367;28;20024;-57
2023/08/15 00:28:38;;;;;;;9.85;1.33;;;;;;;;;;5045298;28;20337;-56
2023/08/15 00:31:04;;;;;;;12.30;1.83;;;;;;;;;;5045625;28;20049;-60
2023/08/15 00:33:31;;;;;;;27.13;2.78;;;;;;;;;;5045147;28;20028;-56
2023/08/15 00:35:59;;;;;;;14.73;2.10;;;;;;;;;;5045196;28;20041;-52
2023/08/15 00:38:25;;;;;;;11.13;1.77;;;;;;;;;;5044923;28;20039;-58
2023/08/15 00:40:52;;;;;;;11.70;2.17;;;;;;;;;;5044831;28;20080;-51
2023/08/15 00:43:19;;;;;;;15.73;3.28;;;;;;;;;;5044783;28;20024;-52
2023/08/15 00:45:46;;;;;;;13.35;3.20;;;;;;;;;;5044977;28;20317;-52
2023/08/15 00:48:12;;;;;;;13.02;2.60;;;;;;;;;;5044936;28;20025;-51
2023/08/15 00:50:41;;;;;;;13.13;3.05;;;;;;;;;;5045000;28;20033;-50
2023/08/15 00:53:08;;;;;;;10.23;2.20;;;;;;;;;;5044566;28;20092;-51
2023/08/15 00:55:36;;;;;;;9.85;2.17;;;;;;;;;;5045029;28;20032;-51
2023/08/15 00:58:02;;;;;;;9.25;2.30;;;;;;;;;;5045007;28;20025;-48
2023/08/15 01:00:29;;;;;;;11.13;2.30;;;;;;;;;;5043620;28;20037;-51
2023/08/15 01:02:56;;;;;;;7.55;2.15;;;;;;;;;;5044732;28;20063;-50
2023/08/15 01:05:23;;;;;;;6.45;2.38;;;;;;;;;;5044688;28;20032;-57
2023/08/15 01:07:50;;;;;;;7.82;2.92;;;;;;;;;;5040355;28;20143;-54
2023/08/15 01:10:16;;;;;;;10.50;3.08;;;;;;;;;;5043810;28;20252;-53
2023/08/15 01:12:46;;;;;;;6.93;2.90;;;;;;;;;;5044037;28;20025;-56
2023/08/15 01:15:34;;;;;;;7.55;2.53;;;;;;;;;;5043894;28;20044;-54
2023/08/15 01:18:04;;;;;;;10.48;3.53;;;;;;;;;;5044311;28;20037;-53
2023/08/15 01:20:36;;;;;;;7.15;3.33;;;;;;;;;;5026796;28;20040;-56
2023/08/15 01:23:06;;;;;;;6.50;3.25;;;;;;;;;;5045731;28;20067;-46
2023/08/15 01:25:44;;;;;;;5.88;3.33;;;;;;;;;;5044559;28;20301;-57
2023/08/15 01:28:18;;;;;;;7.05;3.83;;;;;;;;;;5045712;28;20025;-49
2023/08/15 01:30:47;;;;;;;32.17;6.18;;;;;;;;;;5044805;28;20272;-50
2023/08/15 01:33:18;;;;;;;32.55;6.78;;;;;;;;;;5043939;28;20030;-50
2023/08/15 01:35:47;;;;;;;33.22;6.43;;;;;;;;;;5043065;28;20342;-56
2023/08/15 01:38:20;;;;;;;22.23;4.53;;;;;;;;;;5035323;28;20035;-53
2023/08/15 01:40:49;;;;;;;16.67;4.07;;;;;;;;;;5026050;28;20025;-50
2023/08/15 01:43:16;;;;;;;14.52;3.40;;;;;;;;;;5043075;28;20075;-50
2023/08/15 01:45:43;;;;;;;9.90;3.10;;;;;;;;;;5044003;28;20029;-49
2023/08/15 01:48:10;;;;;;;13.27;2.35;;;;;;;;;;5044043;28;20013;-51
2023/08/15 01:50:37;;;;;;;10.10;2.38;;;;;;;;;;5044300;28;20034;-56
2023/08/15 01:53:42;;;;;;;5.13;2.10;;;;;;;;;;5042867;28;20052;-57
2023/08/15 01:56:09;;;;;;;5.38;1.90;;;;;;;;;;4963275;29;20034;-52
2023/08/15 01:58:36;;;;;;;7.90;1.73;;;;;;;;;;5030091;28;20041;-47
2023/08/15 02:01:06;;;;;;;6.30;1.63;;;;;;;;;;5044220;28;20021;-51
2023/08/15 02:03:33;;;;;;;6.75;1.95;;;;;;;;;;5040828;28;20010;-52
2023/08/15 02:06:00;;;;;;;6.55;1.60;;;;;;;;;;5033141;28;20030;-50
2023/08/15 02:08:26;;;;;;;8.00;1.42;;;;;;;;;;5024033;28;20022;-48
2023/08/15 02:10:53;;;;;;;24.38;2.00;;;;;;;;;;5023890;28;20079;-50
2023/08/15 02:13:20;;;;;;;10.88;1.50;;;;;;;;;;5024292;28;20041;-50
2023/08/15 02:15:47;;;;;;;7.22;1.50;;;;;;;;;;5025132;28;20076;-52
2023/08/15 02:18:19;;;;;;;23.58;2.60;;;;;;;;;;5041289;28;20053;-48
2023/08/15 02:20:45;;;;;;;41.97;3.88;;;;;;;;;;5043309;28;20033;-49
2023/08/15 02:23:12;;;;;;;25.48;2.45;;;;;;;;;;5039558;28;20024;-45
2023/08/15 02:25:39;;;;;;;16.52;2.00;;;;;;;;;;5043463;28;20033;-51
2023/08/15 02:28:08;;;;;;;12.07;1.48;;;;;;;;;;5042854;28;20061;-48
2023/08/15 02:30:37;;;;;;;12.00;1.58;;;;;;;;;;5042447;28;20029;-46
2023/08/15 02:33:10;;;;;;;9.57;1.50;;;;;;;;;;5050639;28;20029;-52
2023/08/15 02:35:40;;;;;;;8.15;1.10;;;;;;;;;;5020704;28;20137;-54
2023/08/15 02:38:09;;;;;;;5.15;1.20;;;;;;;;;;5043616;28;20226;-53
2023/08/15 02:40:36;;;;;;;8.10;1.63;;;;;;;;;;5042392;28;20233;-47
2023/08/15 02:43:03;;;;;;;4.70;1.65;;;27.50;99.90;;;;;;5043784;28;20013;-48
2023/08/15 02:45:30;;;;;;;4.95;1.58;;;27.30;99.90;;;;;;5043567;28;20306;-56
2023/08/15 02:48:03;;;;;;;5.22;1.40;;;27.20;99.90;;;;;;5042967;28;20322;-54
2023/08/15 02:50:29;;;;;;;4.85;1.45;;;27.30;99.90;;;;;;5043614;28;20032;-49
2023/08/15 02:52:56;;;;;;;6.07;1.40;;;27.30;99.90;;;;;;5043415;28;20033;-55
2023/08/15 02:55:28;;;;;;;5.05;1.50;;;27.30;99.90;;;;;;5042599;28;20033;-51
2023/08/15 02:57:55;;;;;;;4.25;1.27;;;27.30;99.90;;;;;;5042539;28;20021;-53
2023/08/15 03:00:22;;;;;;;4.80;1.30;;;27.30;99.90;;;;;;5043278;28;20042;-47
2023/08/15 03:02:49;;;;;;;6.03;1.42;;;27.30;99.90;;;;;;5025992;28;20190;-50
2023/08/15 03:05:15;;;;;;;2.15;1.27;;;27.30;99.90;;;;;;5045610;28;20044;-55
2023/08/15 03:07:42;;;;;;;4.32;1.33;;;27.30;99.90;;;;;;5039234;28;20036;-49
2023/08/15 03:10:09;;;;;;;4.45;1.40;;;27.20;99.90;;;;;;5026751;28;20068;-51
2023/08/15 03:12:35;;;;;;;4.13;1.70;;;27.20;99.90;;;;;;5040046;28;20041;-49
2023/08/15 03:15:02;;;;;;;4.05;1.20;;;27.20;99.90;;;;;;5046516;28;20029;-47
2023/08/15 03:17:29;;;;;;;4.55;1.88;;;27.10;99.90;;;;;;5046741;28;20025;-51
2023/08/15 03:19:57;;;;;;;4.05;1.38;;;27.20;99.90;;;;;;5046629;28;20052;-51
2023/08/15 03:22:23;;;;;;;7.22;1.20;;;;;;;;;;5046754;28;20033;-49
2023/08/15 03:24:50;;;;;;;5.40;1.23;;;;;;;;;;5046285;28;20020;-52
2023/08/15 03:27:18;;;;;;;2.38;0.82;;;;;;;;;;5046743;28;20033;-50
2023/08/15 03:29:45;;;;;;;5.13;1.23;;;;;;;;;;5046421;28;20053;-50
2023/08/15 03:32:11;;;;;;;13.43;1.80;;;;;;;;;;5046637;28;20214;-51
2023/08/15 03:34:38;;;;;;;9.90;1.40;;;;;;;;;;5046276;28;20322;-55
2023/08/15 03:37:05;;;;;;;3.28;1.08;;;;;;;;;;5045800;28;20045;-53
2023/08/15 03:39:31;;;;;;;4.20;1.00;;;27.20;99.90;;;;;;5046324;28;20317;-49
2023/08/15 03:41:58;;;;;;;2.35;1.10;;;27.00;99.90;;;;;;5045995;28;20018;-54
2023/08/15 03:44:27;;;;;;;2.97;0.98;;;26.90;99.90;;;;;;5046210;28;20052;-53
2023/08/15 03:46:54;;;;;;;8.60;0.93;;;26.90;99.90;;;;;;5046179;28;20056;-58
2023/08/15 03:49:20;;;;;;;5.72;0.90;;;26.80;99.90;;;;;;5046088;28;20068;-47
2023/08/15 03:51:47;;;;;;;4.07;0.90;;;26.80;99.90;;;;;;5045867;28;20037;-52
2023/08/15 03:54:14;;;;;;;2.67;1.00;;;26.90;99.90;;;;;;5044239;28;20240;-51
2023/08/15 03:56:41;;;;;;;6.38;1.20;;;26.90;99.90;;;;;;5045361;28;20029;-49
2023/08/15 03:59:07;;;;;;;2.47;0.90;;;26.90;99.90;;;;;;5045842;28;20034;-52
2023/08/15 04:01:34;;;;;;;5.97;1.40;;;26.90;99.90;;;;;;5045746;28;20081;-51
2023/08/15 04:04:01;;;;;;;2.60;1.00;;;;;;;;;;5046407;28;20356;-50
2023/08/15 04:06:27;;;;;;;4.57;1.40;;;;;;;;;;5045764;28;20037;-50
2023/08/15 04:08:54;;;;;;;3.38;1.40;;;;;;;;;;5045096;28;20033;-51
2023/08/15 04:11:20;;;;;;;3.63;1.27;;;;;;;;;;5045703;28;20092;-52
2023/08/15 04:13:47;;;;;;;7.32;1.65;;;;;;;;;;5045501;28;20079;-51
2023/08/15 04:16:15;;;;;;;5.82;1.55;;;;;;;;;;5044751;28;20028;-49
2023/08/15 04:18:42;;;;;;;6.30;1.80;;;;;;;;;;5046391;28;20052;-50
2023/08/15 04:21:11;;;;;;;5.45;1.60;;;;;;;;;;5045505;28;20033;-47
2023/08/15 04:23:39;;;;;;;6.45;1.60;;;;;;;;;;5044937;28;20024;-52
2023/08/15 04:26:06;;;;;;;6.93;1.48;;;;;;;;;;5045119;28;20206;-49
2023/08/15 04:28:33;;;;;;;6.93;1.60;;;;;;;;;;5045798;28;20035;-49
2023/08/15 04:30:59;;;;;;;5.38;1.40;;;;;;;;;;5034139;28;20041;-46
2023/08/15 04:33:26;;;;;;;5.43;1.30;;;;;;;;;;5040733;28;20332;-49
2023/08/15 04:35:53;;;;;;;6.13;1.30;;;;;;;;;;5045059;28;20193;-53
2023/08/15 04:38:20;;;;;;;2.83;0.90;;;;;;;;;;5044996;28;20029;-47
2023/08/15 04:40:47;;;;;;;4.85;1.20;;;;;;;;;;5045031;28;20021;-47
2023/08/15 04:43:13;;;;;;;3.30;1.40;;;;;;;;;;5045416;28;20041;-51
2023/08/15 04:45:40;;;;;;;2.88;0.93;;;;;;;;;;5044708;28;20014;-55
2023/08/15 04:48:12;;;;;;;5.82;1.10;;;27.40;99.90;;;;;;5045030;28;20041;-52
2023/08/15 04:50:39;;;;;;;3.55;0.98;;;27.20;99.90;;;;;;5044904;28;20040;-55
2023/08/15 04:53:06;;;;;;;8.43;1.27;;;27.10;99.90;;;;;;5044795;28;20209;-49
2023/08/15 04:55:34;;;;;;;6.47;1.20;;;27.20;99.90;;;;;;5044435;28;20375;-50
2023/08/15 04:58:00;;;;;;;2.80;0.88;;;27.20;99.90;;;;;;5044547;28;20083;-52
2023/08/15 05:00:28;;;;;;;8.02;1.42;;;27.30;99.90;;;;;;5044089;28;20020;-49
2023/08/15 05:02:54;;;;;;;3.70;1.35;;;27.20;99.90;;;;;;5043790;28;20036;-52
2023/08/15 05:05:21;;;;;;;5.95;1.25;;;27.30;99.90;;;;;;5044593;28;20037;-57
2023/08/15 05:07:47;;;;;;;6.53;1.25;;;27.30;99.90;;;;;;5044301;28;20021;-52
2023/08/15 05:10:14;;;;;;;9.45;1.15;;;27.20;99.90;;;;;;5044178;28;20198;-55
2023/08/15 05:12:41;;;;;;;5.57;0.98;;;27.20;99.90;;;;;;5044393;28;20037;-59
2023/08/15 05:15:09;;;;;;;3.40;0.90;;;27.20;99.90;;;;;;5044289;28;20269;-48
2023/08/15 05:17:36;;;;;;;4.65;1.20;;;27.20;99.90;;;;;;5044039;28;20096;-50
2023/08/15 05:20:04;;;;;;;3.67;1.10;;;27.30;99.90;;;;;;5044329;28;20225;-58
2023/08/15 05:22:31;;;;;;;3.78;0.93;;;27.30;99.90;;;;;;5041774;28;20052;-52
2023/08/15 05:24:58;;;;;;;6.70;1.30;;;27.30;99.90;;;;;;5043765;28;20021;-48
2023/08/15 05:27:25;;;;;;;5.68;1.02;;;27.30;99.90;;;;;;5041726;28;20038;-49
2023/08/15 05:29:51;;;;;;;5.30;1.40;;;27.30;99.90;;;;;;5041335;28;20025;-51
2023/08/15 05:32:18;;;;;;;5.70;1.27;;;27.30;99.90;;;;;;5043264;28;20063;-48
2023/08/15 05:34:44;;;;;;;8.05;1.25;;;27.30;99.90;;;;;;5043030;28;20301;-49
2023/08/15 05:37:11;;;;;;;3.47;1.00;;;27.30;99.90;;;;;;5041925;28;20032;-52
2023/08/15 05:39:38;;;;;;;7.65;1.10;;;27.30;99.90;;;;;;5042153;28;20021;-51
2023/08/15 05:42:04;;;;;;;5.15;1.25;;;27.40;99.90;;;;;;5042478;28;20040;-52
2023/08/15 05:44:31;;;;;;;3.20;1.30;;;27.40;99.90;;;;;;5038982;28;20024;-48
2023/08/15 05:46:58;;;;;;;6.47;1.40;;;27.40;99.90;;;;;;5042637;28;20033;-53
2023/08/15 05:49:24;;;;;;;5.57;1.25;;;27.30;99.90;;;;;;5042692;28;20044;-52
2023/08/15 05:51:52;;;;;;;6.57;1.35;;;27.40;99.90;;;;;;5041172;28;20100;-49
2023/08/15 05:54:19;;;;;;;5.05;1.05;;;27.30;99.90;;;;;;5037948;28;20053;-51
2023/08/15 05:56:45;;;;;;;3.17;1.20;;;27.40;99.90;;;;;;5040469;28;20033;-53
2023/08/15 05:59:12;;;;;;;17.15;1.77;;;27.40;99.90;;;;;;5042499;28;20048;-53
2023/08/15 06:01:38;;;;;;;5.22;1.10;;;27.30;99.90;;;;;;5042544;28;20018;-48
2023/08/15 06:04:06;;;;;;;4.07;1.30;;;27.30;99.90;;;;;;5040496;28;20037;-48
2023/08/15 06:06:33;;;;;;;5.25;1.17;;;27.30;99.90;;;;;;5037847;28;20030;-54
2023/08/15 06:09:01;;;;;;;5.22;1.30;;;;;;;;;;5043038;28;20061;-49
2023/08/15 06:11:28;;;;;;;8.68;1.50;;;;;;;;;;5043776;28;20221;-47
2023/08/15 06:13:55;;;;;;;3.88;1.08;;;;;;;;;;5043351;28;20022;-54
2023/08/15 06:16:21;;;;;;;4.20;1.20;;;;;;;;;;5043630;28;20036;-48
2023/08/15 06:18:48;;;;;;;5.00;1.52;;;;;;;;;;5043505;28;20071;-49
2023/08/15 06:21:15;;;;;;;6.72;1.15;;;;;;;;;;5042469;28;20028;-58
2023/08/15 06:23:41;;;;;;;8.23;1.50;;;;;;;;;;5035397;28;20226;-53
2023/08/15 06:26:08;;;;;;;12.77;1.70;;;;;;;;;;5043601;28;20333;-54
2023/08/15 06:28:35;;;;;;;7.95;1.10;;;;;;;;;;5043982;28;20127;-51
2023/08/15 06:31:01;;;;;;;11.65;1.38;;;;;;;;;;5043484;28;20056;-49
2023/08/15 06:33:28;;;;;;;18.35;2.00;;;;;;;;;;5043343;28;20037;-51
2023/08/15 06:35:54;;;;;;;12.38;1.67;;;;;;;;;;5043309;28;20049;-49
2023/08/15 06:38:21;;;;;;;8.60;1.35;;;;;;;;;;5044286;28;20108;-54
2023/08/15 06:40:48;;;;;;;6.28;1.20;;;;;;;;;;5047354;28;20095;-47
2023/08/15 06:43:14;;;;;;;4.45;1.15;;;;;;;;;;5045001;28;20033;-47
2023/08/15 06:45:41;;;;;;;5.47;0.98;;;;;;;;;;5038549;28;20029;-48
2023/08/15 06:48:08;;;;;;;3.60;0.90;;;;;;;;;;5047533;28;20041;-47
2023/08/15 06:50:34;;;;;;;6.35;0.98;;;;;;;;;;5047024;28;20048;-54
2023/08/15 06:53:01;;;;;;;6.82;1.23;;;;;;;;;;5046533;28;20057;-49
2023/08/15 06:55:28;;;;;;;5.03;1.20;;;;;;;;;;5047119;28;20064;-54
2023/08/15 06:57:54;;;;;;;5.88;0.90;;;;;;;;;;5046855;28;20033;-49
2023/08/15 07:00:21;;;;;;;4.25;1.00;;;;;;;;;;5046809;28;20055;-47
2023/08/15 07:02:48;;;;;;;6.20;1.10;;;;;;;;;;5045361;28;20037;-47
2023/08/15 07:05:15;;;;;;;5.53;1.15;;;;;;;;;;5046876;28;20028;-46
2023/08/15 07:07:41;;;;;;;6.80;1.20;;;;;;;;;;5046422;28;20038;-50
2023/08/15 07:10:10;;;;;;;7.53;1.40;;;;;;;;;;5046874;28;20059;-48
2023/08/15 07:12:36;;;;;;;25.85;2.95;;;;;;;;;;5045852;28;20056;-51
2023/08/15 07:15:03;;;;;;;39.60;3.60;;;;;;;;;;5043360;28;20037;-48
2023/08/15 07:17:30;;;;;;;26.13;2.60;;;;;;;;;;5040373;28;20312;-47
2023/08/15 07:19:57;;;;;;;31.05;3.72;;;;;;;;;;5045400;28;20032;-54
2023/08/15 07:22:23;;;;;;;30.65;4.38;;;;;;;;;;5045174;28;20044;-54
2023/08/15 07:24:50;;;;;;;37.90;5.05;;;;;;;;;;5045705;28;20317;-54
2023/08/15 07:27:17;;;;;;;40.53;5.55;;;;;;;;;;5041545;28;20055;-52
2023/08/15 07:29:44;;;;;;;33.03;6.05;;;;;;;;;;5045244;28;20067;-49
2023/08/15 07:32:11;;;;;;;56.85;7.22;;;;;;;;;;5043849;28;20415;-45
2023/08/15 07:34:37;;;;;;;89.95;9.20;;;;;;;;;;5046046;28;20037;-48
2023/08/15 07:37:04;;;;;;;51.35;7.10;;;;;;;;;;5045599;28;20293;-59
2023/08/15 07:39:31;;;;;;;38.47;6.60;;;;;;;;;;5046288;28;20068;-48
2023/08/15 07:41:57;;;;;;;25.88;4.55;;;;;;;;;;5046010;28;20014;-53
2023/08/15 07:44:25;;;;;;;19.42;4.00;;;;;;;;;;5044941;28;20044;-51
2023/08/15 07:46:52;;;;;;;19.95;3.53;;;;;;;;;;5044929;28;20037;-53
2023/08/15 07:49:19;;;;;;;15.13;3.00;;;;;;;;;;5045553;28;20276;-47
2023/08/15 07:51:46;;;;;;;16.48;2.95;;;;;;;;;;5044985;28;20025;-48
2023/08/15 07:54:14;;;;;;;6.82;2.38;;;;;;;;;;5045919;28;20367;-47
2023/08/15 07:56:40;;;;;;;10.98;2.60;;;;;;;;;;5045744;28;20209;-47
2023/08/15 07:59:07;;;;;;;9.10;2.33;;;;;;;;;;5045673;28;20021;-51
2023/08/15 08:01:34;;;;;;;6.47;1.83;;;;;;;;;;5045964;28;20242;-46
2023/08/15 08:04:00;;;;;;;8.07;2.10;;;;;;;;;;5045688;28;20249;-50
2023/08/15 08:06:27;;;;;;;5.47;1.77;;;;;;;;;;5045367;28;20044;-52
2023/08/15 08:08:54;;;;;;;7.45;2.05;;;;;;;;;;5046037;28;20029;-50
2023/08/15 08:11:20;;;;;;;9.07;2.20;;;;;;;;;;5045742;28;20013;-47
2023/08/15 08:13:47;;;;;;;4.40;1.83;;;;;;;;;;5045556;28;20254;-50
2023/08/15 08:16:14;;;;;;;14.43;2.20;;;;;;;;;;5045379;28;20029;-50
2023/08/15 08:18:40;;;;;;;7.72;1.88;;;;;;;;;;5045483;28;20029;-46
2023/08/15 08:21:09;;;;;;;5.70;1.98;;;;;;;;;;5045160;28;20280;-47
2023/08/15 08:23:36;;;;;;;7.20;1.92;;;;;;;;;;5045444;28;20045;-50
2023/08/15 08:26:04;;;;;;;6.78;2.15;;;;;;;;;;5044434;28;20028;-46
2023/08/15 08:28:31;;;;;;;7.28;1.58;;;;;;;;;;5044653;28;20022;-52
2023/08/15 08:30:58;;;;;;;11.10;1.88;;;;;;;;;;5045080;28;20037;-51
2023/08/15 08:33:25;;;;;;;5.85;1.85;;;;;;;;;;5044981;28;20071;-47
2023/08/15 08:35:52;;;;;;;6.32;1.80;;;;;;;;;;5044901;28;20048;-47
2023/08/15 08:38:19;;;;;;;4.05;1.60;;;;;;;;;;5044631;28;20045;-51
2023/08/15 08:40:47;;;;;;;6.85;1.70;;;;;;;;;;5045148;28;20187;-53
2023/08/15 08:43:14;;;;;;;5.88;2.15;;;;;;;;;;5044877;28;20191;-50
2023/08/15 08:45:41;;;;;;;4.20;2.00;;;;;;;;;;5044732;28;20052;-49
2023/08/15 08:48:09;;;;;;;6.40;1.88;;;;;;;;;;5044955;28;20036;-51
2023/08/15 08:50:37;;;;;;;5.80;2.28;;;;;;;;;;5044796;28;20022;-51
2023/08/15 08:53:03;;;;;;;6.88;2.00;;;;;;;;;;5044861;28;20272;-51
2023/08/15 08:55:30;;;;;;;6.47;2.25;;;;;;;;;;5044900;28;20020;-55
2023/08/15 08:58:02;;;;;;;5.05;1.90;;;;;;;;;;5044502;28;20040;-49
2023/08/15 09:00:34;;;;;;;5.85;1.73;;;;;;;;;;5044577;28;20449;-47
2023/08/15 09:03:00;;;;;;;3.97;1.55;;;;;;;;;;5044416;28;20366;-49
2023/08/15 09:05:27;;;;;;;8.38;1.92;;;;;;;;;;5044526;28;20093;-51
2023/08/15 09:07:54;;;;;;;4.85;1.63;;;;;;;;;;5044608;28;20026;-49
2023/08/15 09:10:22;;;;;;;4.25;1.95;;;;;;;;;;5044626;28;20032;-49
2023/08/15 09:12:49;;;;;;;6.15;1.95;;;;;;;;;;5044134;28;20321;-50
2023/08/15 09:15:16;;;;;;;6.50;1.67;;;;;;;;;;5044367;28;20096;-49
2023/08/15 09:17:43;;;;;;;3.65;1.70;;;;;;;;;;5044272;28;20034;-53
2023/08/15 09:20:12;;;;;;;5.05;1.70;;;;;;;;;;5044173;28;20093;-53
2023/08/15 09:22:45;;;;;;;5.03;1.70;;;;;;;;;;5043793;28;20375;-49
2023/08/15 09:25:12;;;;;;;4.80;1.40;;;;;;;;;;5044209;28;20032;-47
2023/08/15 09:27:39;;;;;;;3.70;1.50;;;;;;;;;;5043980;28;20041;-54
2023/08/15 09:30:13;;;;;;;3.90;1.63;;;;;;;;;;5044244;28;20026;-49
2023/08/15 09:32:41;;;;;;;7.03;1.73;;;;;;;;;;5043966;28;20041;-52
2023/08/15 09:35:09;;;;;;;5.07;1.55;;;;;;;;;;5043693;28;20193;-47
2023/08/15 09:37:40;;;;;;;4.68;1.70;;;;;;;;;;5043886;28;20060;-47
2023/08/15 09:40:08;;;;;;;6.82;1.63;;;;;;;;;;5044222;28;20253;-47
2023/08/15 09:42:35;;;;;;;7.05;1.73;;;;;;;;;;5043817;28;20037;-48
2023/08/15 09:45:03;;;;;;;5.00;1.42;;;;;;;;;;5044017;28;20024;-48
2023/08/15 09:47:30;;;;;;;3.97;1.35;;;;;;;;;;5043927;28;20087;-47
2023/08/15 09:49:56;;;;;;;3.58;1.50;;;;;;;;;;5043851;28;20097;-49
2023/08/15 09:52:24;;;;;;;6.20;1.70;;;;;;;;;;5043331;28;20075;-54
2023/08/15 09:54:50;;;;;;;3.75;1.38;;;;;;;;;;5043328;28;20029;-53
2023/08/15 09:57:17;;;;;;;5.30;1.65;;;;;;;;;;5041180;28;20048;-50
2023/08/15 09:59:44;;;;;;;7.60;1.60;;;;;;;;;;5043036;28;20029;-47
2023/08/15 10:02:20;;;;;;;4.95;1.38;;;;;;;;;;5040392;28;20025;-48
2023/08/15 10:04:47;;;;;;;3.47;1.63;;;;;;;;;;5043603;28;20030;-50
2023/08/15 10:07:14;;;;;;;5.68;1.60;;;;;;;;;;5043342;28;20083;-46
2023/08/15 10:09:41;;;;;;;9.45;2.00;;;;;;;;;;5043591;28;20089;-48
2023/08/15 10:12:08;;;;;;;3.72;1.55;;;;;;;;;;5043789;28;20031;-55
2023/08/15 10:14:35;;;;;;;8.07;2.25;;;;;;;;;;5046971;28;20348;-59
2023/08/15 10:17:02;;;;;;;4.97;2.00;;;;;;;;;;5047549;28;20049;-49
2023/08/15 10:19:32;;;;;;;6.00;2.60;;;;;;;;;;5047930;28;20013;-53
2023/08/15 10:21:59;;;;;;;3.35;1.75;;;;;;;;;;5047304;28;20033;-49
2023/08/15 10:24:26;;;;;;;4.30;1.80;;;;;;;;;;5047532;28;20043;-50
2023/08/15 10:26:53;;;;;;;6.20;1.70;;;;;;;;;;5047540;28;20068;-48
2023/08/15 10:29:21;;;;;;;5.93;1.48;;;;;;;;;;5047663;28;20037;-49
2023/08/15 10:32:01;;;;;;;5.90;1.65;;;;;;;;;;5047424;28;20040;-51
2023/08/15 10:34:32;;;;;;;4.47;1.80;;;;;;;;;;5047379;28;20116;-46
2023/08/15 10:37:17;;;;;;;4.45;1.60;;;;;;;;;;5047127;28;20233;-53
2023/08/15 10:39:44;;;;;;;7.32;1.33;;;;;;;;;;5047334;28;20029;-49
2023/08/15 10:42:10;;;;;;;6.65;1.45;;;;;;;;;;5047251;28;20092;-55
2023/08/15 10:44:38;;;;;;;4.32;1.33;;;;;;;;;;5047170;28;20017;-53
2023/08/15 10:47:22;;;;;;;7.65;1.63;;;;;;;;;;5047146;28;20070;-47
2023/08/15 10:49:53;;;;;;;3.85;1.50;;;;;;;;;;5046703;28;20040;-50
2023/08/15 10:52:20;;;;;;;4.22;1.25;;;;;;;;;;5047380;28;20056;-47
2023/08/15 10:54:47;;;;;;;2.10;0.98;;;26.60;99.90;;;;;;5047139;28;20317;-53
2023/08/15 10:57:13;;;;;;;4.50;1.30;;;26.30;99.90;;;;;;5045643;28;20059;-53
2023/08/15 10:59:43;;;;;;;6.25;1.30;;;26.30;99.90;;;;;;5047157;28;20024;-50
2023/08/15 11:02:09;;;;;;;3.80;1.10;;;26.30;99.90;;;;;;5046948;28;20057;-50
2023/08/15 11:04:38;;;;;;;2.65;1.13;;;;;;;;;;5046420;28;20021;-50
2023/08/15 11:07:05;;;;;;;5.00;0.82;;;26.50;99.90;;;;;;5046878;28;20045;-54
2023/08/15 11:09:31;;;;;;;4.30;0.90;;;26.30;99.90;;;;;;5045753;28;20233;-50
2023/08/15 11:12:48;;;;;;;4.18;0.93;;;26.30;99.90;;;;;;5046946;28;20021;-55
2023/08/15 11:15:15;;;;;;;5.80;0.63;;;;;;;;;;5039083;28;20101;-52
2023/08/15 11:17:46;;;;;;;2.72;0.60;;;26.40;99.90;;;;;;5046627;28;20053;-51
2023/08/15 11:20:13;;;;;;;2.90;0.70;;;26.40;99.90;;;;;;5046173;28;20029;-49
2023/08/15 11:22:40;;;;;;;3.70;0.70;;;26.40;99.90;;;;;;5046652;28;20113;-51
2023/08/15 11:25:08;;;;;;;3.13;0.70;;;26.40;99.90;;;;;;5045223;28;20022;-51
2023/08/15 11:27:45;;;;;;;2.97;0.70;;;26.60;99.90;;;;;;5046377;28;20333;-49
2023/08/15 11:30:11;;;;;;;1.52;0.57;;;26.60;99.90;;;;;;5046424;28;20029;-53
2023/08/15 11:32:41;;;;;;;2.85;0.73;;;26.60;99.90;;;;;;5046570;28;20041;-50
2023/08/15 11:35:08;;;;;;;1.75;0.70;;;;;;;;;;5045826;28;20373;-51
2023/08/15 11:37:35;;;;;;;1.60;0.60;;;26.80;99.90;;;;;;5046546;28;20053;-49
2023/08/15 11:40:03;;;;;;;2.67;0.70;;;26.70;99.90;;;;;;5046185;28;20033;-51
2023/08/15 11:42:32;;;;;;;5.65;0.75;;;;;;;;;;5046312;28;20080;-47
2023/08/15 11:45:18;;;;;;;2.90;0.75;;;;;;;;;;5046137;28;20372;-48
2023/08/15 11:48:02;;;;;;;1.90;0.60;;;;;;;;;;5045795;28;20100;-54
2023/08/15 11:50:30;;;;;;;2.85;0.80;;;;;;;;;;5045782;28;20017;-54
2023/08/15 11:52:57;;;;;;;1.55;0.52;;;;;;;;;;5045655;28;20038;-49
2023/08/15 11:55:24;;;;;;;3.08;0.90;;;27.00;99.90;;;;;;5046021;28;20024;-54
2023/08/15 11:57:52;;;;;;;3.08;0.80;;;26.80;99.90;;;;;;5044893;28;20108;-47
2023/08/15 12:00:20;;;;;;;2.10;0.57;;;26.80;99.90;;;;;;5045683;28;20228;-50
2023/08/15 12:02:49;;;;;;;2.97;0.88;;;26.80;99.90;;;;;;5045747;28;20095;-51
2023/08/15 12:05:17;;;;;;;2.00;0.60;;;26.80;99.90;;;;;;5045448;28;20032;-50
2023/08/15 12:07:49;;;;;;;3.00;0.63;;;26.80;99.90;;;;;;5045698;28;20276;-55
2023/08/15 12:10:19;;;;;;;2.53;0.73;;;27.00;99.90;;;;;;5046021;28;20036;-50
2023/08/15 12:12:47;;;;;;;2.55;0.90;;;27.10;99.90;;;;;;5046026;28;20103;-51
2023/08/15 12:15:16;;;;;;;3.45;0.80;;;27.20;99.90;;;;;;5045756;28;20408;-51
2023/08/15 12:17:43;;;;;;;2.78;0.93;;;27.30;99.90;;;;;;5045712;28;20091;-49
2023/08/15 12:20:14;;;;;;;2.65;0.75;;;27.40;99.90;;;;;;5045426;28;20308;-52
2023/08/15 12:22:41;;;;;;;3.45;0.60;;;;;;;;;;5045801;28;20018;-50
2023/08/15 12:25:09;;;;;;;1.67;0.52;;;;;;;;;;5044578;28;20083;-48
2023/08/15 12:27:38;;;;;;;1.20;0.70;;;;;;;;;;5045642;28;20034;-49
2023/08/15 12:30:05;;;;;;;3.63;1.00;;;;;;;;;;5046029;28;20351;-49
2023/08/15 12:32:32;;;;;;;1.52;0.60;;;;;;;;;;5045493;28;20033;-57
2023/08/15 12:34:59;;;;;;;2.05;0.60;;;;;;;;;;5044738;28;20044;-52
2023/08/15 12:37:25;;;;;;;2.58;0.65;;;;;;;;;;5044813;28;20103;-55
2023/08/15 12:39:52;;;;;;;5.50;0.80;;;;;;;;;;5045319;28;20210;-49
2023/08/15 12:42:22;;;;;;;2.03;0.80;;;;;;;;;;5044913;28;20033;-51
2023/08/15 12:44:48;;;;;;;2.65;1.40;;;;;;;;;;5045389;28;20021;-57
2023/08/15 12:47:15;;;;;;;54.33;48.90;;;;;;;;;;5045652;28;20037;-50
2023/08/15 12:49:42;;;;;;;102.82;92.50;;;;;;;;;;5044604;28;20037;-49
2023/08/15 12:52:08;;;;;;;58.03;52.30;;;;;;;;;;5045063;28;20029;-53
2023/08/15 12:54:35;;;;;;;41.15;37.00;;;;;;;;;;5045088;28;20029;-48
2023/08/15 12:57:11;;;;;;;31.15;27.98;;;;;;;;;;5044684;28;20053;-53
2023/08/15 12:59:37;;;;;;;23.80;21.30;;;;;;;;;;5044948;28;20212;-52
2023/08/15 13:02:04;;;;;;;16.90;15.30;;;;;;;;;;5035664;28;20051;-50
2023/08/15 13:04:31;;;;;;;13.85;12.40;;;;;;;;;;5044143;28;20037;-50
2023/08/15 13:06:58;;;;;;;10.70;9.55;;;;;;;;;;5044688;28;20032;-48
2023/08/15 13:09:24;;;;;;;10.88;8.18;;;;;;;;;;5044677;28;20061;-53
2023/08/15 13:11:51;;;;;;;8.07;6.90;;;;;;;;;;5043669;28;20021;-51
2023/08/15 13:14:18;;;;;;;6.72;6.03;;;;;;;;;;5044759;28;20025;-52
2023/08/15 13:16:44;;;;;;;6.45;4.97;;;;;;;;;;5044374;28;20053;-54
2023/08/15 13:19:11;;;;;;;5.78;3.78;;;;;;;;;;5042550;28;20017;-53
2023/08/15 13:21:38;;;;;;;26.45;23.98;;;;;;;;;;5043140;28;20213;-50
2023/08/15 13:24:05;;;;;;;19.23;17.33;;;;;;;;;;5044328;28;20029;-51
2023/08/15 13:26:31;;;;;;;15.18;13.63;;;;;;;;;;5044277;28;20081;-49
2023/08/15 13:28:59;;;;;;;12.27;11.18;;;;;;;;;;5044239;28;20376;-51
2023/08/15 13:31:26;;;;;;;9.60;8.70;;;;;;;;;;5026006;28;20225;-49
2023/08/15 13:33:52;;;;;;;10.77;9.68;;;;;;;;;;5044296;28;20032;-47
2023/08/15 13:36:19;;;;;;;8.02;6.05;;;;;;;;;;5044067;28;20155;-54
2023/08/15 13:38:46;;;;;;;7.03;6.28;;;;;;;;;;5042872;28;20167;-50
2023/08/15 13:41:13;;;;;;;5.65;4.65;;;;;;;;;;5043853;28;20210;-49
2023/08/15 13:43:40;;;;;;;6.03;4.30;;;;;;;;;;5044031;28;20030;-54
2023/08/15 13:46:07;;;;;;;5.47;3.67;;;;;;;;;;5043301;28;20241;-53
2023/08/15 13:48:37;;;;;;;3.55;3.00;;;;;;;;;;5043101;28;20318;-55
2023/08/15 13:51:25;;;;;;;3.33;2.65;;;;;;;;;;5043464;28;20025;-50
2023/08/15 13:53:52;;;;;;;4.47;2.40;;;;;;;;;;5043649;28;20025;-55
2023/08/15 13:56:19;;;;;;;2.60;1.80;;;;;;;;;;5043825;28;20039;-48
2023/08/15 13:58:46;;;;;;;2.55;1.95;;;;;;;;;;5043790;28;20036;-57
2023/08/15 14:01:13;;;;;;;2.88;1.70;;;;;;;;;;5043703;28;20041;-49
2023/08/15 14:03:39;;;;;;;2.00;1.35;;;;;;;;;;5043928;28;20026;-50
2023/08/15 14:06:07;;;;;;;4.82;1.58;;;;;;;;;;5044080;28;20097;-50
2023/08/15 14:08:34;;;;;;;2.90;1.30;;;;;;;;;;5040877;28;20025;-52
2023/08/15 14:11:03;;;;;;;3.25;1.15;;;;;;;;;;5041422;28;20029;-53
2023/08/15 14:13:30;;;;;;;1.50;0.90;;;;;;;;;;5043801;28;20048;-53